Time;durP1;ratioP1;P1;durP2;ratioP2;P2;SDS_P1;SDS_P2;PMS_P1;PMS_P2;Temp;Humidity;BMP_temperature;BMP_pressure;BME280_temperature;BME280_humidity;BME280_pressure;Samples;Min_cycle;Max_cycle;Signal;HPM_P1;HPM_P2
2022/07/08 00:01:42;;;;;;;11.07;1.30;;;;;;;16.32;85.54;99753.88;4954484;29;20599;-65
2022/07/08 00:04:08;;;;;;;6.30;1.80;;;;;;;16.29;82.51;99757.03;4947306;28;20117;-65
2022/07/08 00:06:33;;;;;;;7.80;1.67;;;;;;;16.14;81.89;99754.63;4942199;28;20050;-66
2022/07/08 00:08:58;;;;;;;4.90;1.20;;;;;;;16.00;82.17;99760.09;4945319;28;20504;-65
2022/07/08 00:11:23;;;;;;;8.63;1.25;;;;;;;15.89;80.00;99758.03;4947736;29;20023;-65
2022/07/08 00:13:49;;;;;;;5.38;1.50;;;;;;;15.77;79.20;99743.38;4943634;28;20035;-65
2022/07/08 00:16:14;;;;;;;6.82;1.33;;;;;;;15.58;80.83;99747.78;4943430;28;20154;-65
2022/07/08 00:18:40;;;;;;;5.38;1.25;;;;;;;15.44;81.51;99755.16;4939399;28;20031;-65
2022/07/08 00:21:05;;;;;;;4.30;1.23;;;;;;;15.24;82.22;99733.38;4944749;29;20023;-65
2022/07/08 00:23:30;;;;;;;5.13;1.58;;;;;;;15.20;83.67;99753.94;4945175;29;21419;-65
2022/07/08 00:25:56;;;;;;;4.93;1.33;;;;;;;15.14;84.88;99754.75;4948305;28;20046;-65
2022/07/08 00:28:21;;;;;;;4.93;1.63;;;;;;;15.03;86.31;99753.50;4943781;29;20109;-65
2022/07/08 00:30:46;;;;;;;5.38;1.42;;;;;;;14.88;87.32;99758.31;4950986;28;20454;-65
2022/07/08 00:33:12;;;;;;;7.20;1.48;;;;;;;14.75;87.63;99744.66;4942074;29;20042;-66
2022/07/08 00:35:37;;;;;;;7.68;1.95;;;;;;;14.75;88.47;99777.34;4938003;29;20032;-65
2022/07/08 00:38:02;;;;;;;6.18;1.65;;;;;;;14.64;90.46;99776.91;4941012;29;20035;-65
2022/07/08 00:40:28;;;;;;;6.97;1.45;;;;;;;14.57;90.52;99772.53;4947721;29;20774;-65
2022/07/08 00:42:53;;;;;;;5.88;1.67;;;;;;;14.50;90.89;99780.63;4949114;28;20038;-65
2022/07/08 00:45:18;;;;;;;4.88;1.92;;;;;;;14.43;92.03;99785.19;4948087;28;20078;-65
2022/07/08 00:47:44;;;;;;;5.13;1.70;;;;;;;14.43;92.13;99788.75;4950174;28;20114;-66
2022/07/08 00:50:11;;;;;;;4.63;1.40;;;;;;;14.32;92.78;99785.81;4949175;29;20023;-65
2022/07/08 00:52:37;;;;;;;6.78;1.58;;;;;;;14.28;93.35;99782.66;4943603;28;20118;-65
2022/07/08 00:55:04;;;;;;;8.23;2.35;;;;;;;14.24;91.81;99793.09;4948906;29;20568;-65
2022/07/08 00:57:30;;;;;;;6.30;2.00;;;;;;;14.25;92.49;99797.50;4952080;29;20086;-65
2022/07/08 00:59:56;;;;;;;8.40;1.65;;;;;;;14.17;93.08;99802.28;4951116;28;20027;-65
2022/07/08 01:02:21;;;;;;;6.88;1.70;;;;;;;14.06;95.32;99800.97;4948362;29;20027;-65
2022/07/08 01:04:47;;;;;;;6.50;1.70;;;;;;;13.93;96.91;99800.91;4952232;28;20027;-65
2022/07/08 01:07:12;;;;;;;5.30;2.00;;;;;;;13.72;98.61;99789.03;4951683;28;20023;-65
2022/07/08 01:09:38;;;;;;;8.88;1.90;;;;;;;13.74;99.50;99797.84;4940569;28;20044;-65
2022/07/08 01:12:04;;;;;;;7.63;2.05;;;;;;;13.69;100.00;99792.16;4947484;29;20035;-65
2022/07/08 01:14:29;;;;;;;5.75;1.80;;;;;;;13.69;100.00;99799.50;4943548;29;20023;-65
2022/07/08 01:16:55;;;;;;;9.45;2.22;;;;;;;13.64;100.00;99789.22;4945324;28;20378;-65
2022/07/08 01:19:20;;;;;;;3.97;1.73;;;;;;;13.67;100.00;99787.97;4950396;29;20504;-65
2022/07/08 01:21:46;;;;;;;6.70;1.92;;;;;;;13.61;100.00;99795.06;4940998;28;20039;-65
2022/07/08 01:24:11;;;;;;;5.47;1.90;;;;;;;13.55;100.00;99793.13;4948209;28;20037;-66
2022/07/08 01:26:36;;;;;;;7.68;2.00;;;;;;;13.51;100.00;99800.81;4945754;29;20039;-65
2022/07/08 01:29:02;;;;;;;9.85;2.13;;;;;;;13.44;100.00;99796.38;4951259;29;20073;-65
2022/07/08 01:31:27;;;;;;;8.88;2.20;;;;;;;13.35;100.00;99810.13;4946882;29;20023;-65
2022/07/08 01:33:53;;;;;;;7.25;2.17;;;;;;;13.23;100.00;99811.69;4952192;28;20493;-65
2022/07/08 01:36:18;;;;;;;4.00;1.98;;;;;;;13.10;100.00;99812.41;4950381;28;20031;-65
2022/07/08 01:38:43;;;;;;;10.25;2.45;;;;;;;13.09;100.00;99818.00;4946026;29;20027;-65
2022/07/08 01:41:08;;;;;;;7.18;2.47;;;;;;;13.08;100.00;99803.59;4945325;29;20083;-66
2022/07/08 01:43:34;;;;;;;7.75;1.75;;;;;;;13.00;100.00;99800.19;4941894;29;20554;-65
2022/07/08 01:45:59;;;;;;;7.60;2.33;;;;;;;13.01;100.00;99812.72;4949875;29;20035;-65
2022/07/08 01:48:24;;;;;;;7.70;2.28;;;;;;;13.03;100.00;99811.47;4953976;28;20023;-65
2022/07/08 01:50:50;;;;;;;9.15;2.10;;;;;;;12.87;100.00;99793.56;4941034;28;20027;-66
2022/07/08 01:53:15;;;;;;;7.25;2.25;;;;;;;13.02;100.00;99817.09;4941420;29;20485;-65
2022/07/08 01:55:41;;;;;;;9.52;2.38;;;;;;;13.02;100.00;99831.56;4942242;29;20028;-65
2022/07/08 01:58:06;;;;;;;6.88;2.30;;;;;;;13.11;100.00;99834.97;4949559;29;20055;-65
2022/07/08 02:00:32;;;;;;;9.35;2.53;;;;;;;13.04;100.00;99823.19;4945183;28;20031;-65
2022/07/08 02:02:57;;;;;;;6.75;2.15;;;;;;;13.23;100.00;99838.00;4947266;28;20466;-65
2022/07/08 02:05:24;;;;;;;7.70;2.10;;;;;;;13.32;100.00;99840.41;4943886;28;20039;-66
2022/07/08 02:07:49;;;;;;;10.70;2.42;;;;;;;13.39;100.00;99840.50;4947470;29;20035;-65
2022/07/08 02:10:14;;;;;;;9.68;2.60;;;;;;;13.47;100.00;99850.38;4953124;28;20401;-65
2022/07/08 02:12:40;;;;;;;11.57;2.30;;;;;;;13.45;100.00;99852.44;4952855;28;20114;-65
2022/07/08 02:15:07;;;;;;;9.95;2.72;;;;;;;13.45;100.00;99844.28;4947003;28;20050;-64
2022/07/08 02:17:35;;;;;;;6.18;2.08;;;;;;;13.47;100.00;99839.50;4945149;29;20091;-65
2022/07/08 02:20:01;;;;;;;6.68;2.40;;;;;;;13.39;100.00;99832.34;4947483;29;20176;-65
2022/07/08 02:22:27;;;;;;;9.38;2.22;;;;;;;13.53;100.00;99839.53;4948267;29;20039;-65
2022/07/08 02:24:52;;;;;;;6.55;2.17;;;;;;;13.52;100.00;99854.19;4943646;29;20110;-65
2022/07/08 02:27:18;;;;;;;9.30;2.20;;;;;;;13.54;100.00;99848.53;4950659;28;20027;-64
2022/07/08 02:29:44;;;;;;;10.90;1.85;;;;;;;13.54;100.00;99853.97;4958818;28;20489;-65
2022/07/08 02:32:10;;;;;;;5.95;2.10;;;;;;;13.48;100.00;99843.91;4955876;28;20429;-65
2022/07/08 02:34:35;;;;;;;5.07;1.83;;;;;;;13.46;100.00;99848.69;4945911;29;20089;-65
2022/07/08 02:37:00;;;;;;;9.73;1.95;;;;;;;13.40;100.00;99849.47;4950708;29;20053;-66
2022/07/08 02:39:26;;;;;;;7.72;2.20;;;;;;;13.34;100.00;99848.38;4950842;28;20027;-65
2022/07/08 02:41:51;;;;;;;16.63;2.10;;;;;;;13.08;100.00;99851.66;4941658;29;20031;-65
2022/07/08 02:44:18;;;;;;;8.70;2.42;;;;;;;13.10;100.00;99872.16;4944719;29;20393;-66
2022/07/08 02:46:44;;;;;;;5.65;1.80;;;;;;;12.93;100.00;99852.53;4951921;28;20038;-65
2022/07/08 02:49:09;;;;;;;4.15;1.70;;;;;;;13.00;100.00;99878.97;4946022;28;20027;-65
2022/07/08 02:51:35;;;;;;;7.50;1.90;;;;;;;12.89;100.00;99881.13;4949833;28;20074;-65
2022/07/08 02:54:01;;;;;;;8.05;2.03;;;;;;;12.72;100.00;99866.09;4947494;29;20374;-65
2022/07/08 02:56:27;;;;;;;6.72;1.80;;;;;;;12.72;100.00;99896.81;4941654;29;20031;-66
2022/07/08 02:58:52;;;;;;;7.50;2.10;;;;;;;12.67;100.00;99887.56;4949782;28;20027;-65
2022/07/08 03:01:18;;;;;;;7.03;1.90;;;;;;;12.56;100.00;99890.75;4951537;28;20034;-66
2022/07/08 03:03:43;;;;;;;9.10;1.98;;;;;;;12.44;100.00;99891.25;4943945;29;20023;-65
2022/07/08 03:06:08;;;;;;;11.05;2.15;;;;;;;12.34;100.00;99892.53;4948324;29;20045;-65
2022/07/08 03:08:34;;;;;;;4.97;2.00;;;;;;;12.21;100.00;99893.22;4947191;29;20031;-65
2022/07/08 03:10:59;;;;;;;16.88;2.60;;;;;;;12.10;100.00;99891.78;4953673;28;20015;-65
2022/07/08 03:13:24;;;;;;;7.13;1.90;;;;;;;12.02;100.00;99898.16;5012572;23;20045;-64
2022/07/08 03:15:49;;;;;;;6.07;1.80;;;;;;;11.96;100.00;99903.50;5007921;28;20073;-64
2022/07/08 03:18:15;;;;;;;6.60;1.83;;;;;;;11.97;100.00;99913.31;5017346;28;20398;-64
2022/07/08 03:20:40;;;;;;;4.75;1.70;;;;;;;12.00;100.00;99900.22;4998106;28;20026;-64
2022/07/08 03:23:06;;;;;;;4.45;1.83;;;;;;;12.09;100.00;99911.00;4994257;28;20428;-64
2022/07/08 03:25:33;;;;;;;4.10;2.10;;;;;;;12.01;100.00;99907.34;4982955;28;20047;-64
2022/07/08 03:27:58;;;;;;;6.03;1.80;;;;;;;12.07;100.00;99914.72;4987660;28;20027;-64
2022/07/08 03:30:23;;;;;;;4.00;2.22;;;;;;;12.06;100.00;99925.75;4992711;28;20029;-64
2022/07/08 03:32:49;;;;;;;8.10;1.73;;;;;;;12.13;100.00;99936.69;5006826;28;20033;-65
2022/07/08 03:35:14;;;;;;;8.85;2.38;;;;;;;12.15;100.00;99931.94;4983736;28;20399;-64
2022/07/08 03:37:44;;;;;;;5.95;2.00;;;;;;;12.17;100.00;99929.88;4994381;28;20034;-64
2022/07/08 03:42:56;;;;;;;5.95;2.00;;;;;;;12.03;100.00;99940.53;4989300;28;20034;-64
2022/07/08 03:45:22;;;;;;;8.93;2.05;;;;;;;11.97;100.00;99948.56;4988892;28;20034;-63
2022/07/08 03:47:47;;;;;;;8.15;2.00;;;;;;;11.90;100.00;99945.75;4993481;28;20026;-66
2022/07/08 03:50:13;;;;;;;8.90;2.45;;;;;;;11.87;100.00;99948.84;4989700;28;20037;-70
2022/07/08 03:52:39;;;;;;;6.43;1.90;;;;;;;11.83;100.00;99931.22;4987753;28;20030;-69
2022/07/08 03:55:04;;;;;;;6.25;1.70;;;;;;;11.89;100.00;99948.63;4980663;28;20033;-70
2022/07/08 03:57:30;;;;;;;8.25;2.00;;;;;;;12.09;100.00;99955.22;4989524;28;20033;-70
2022/07/08 03:59:56;;;;;;;7.85;1.92;;;;;;;12.07;100.00;99951.84;4993593;28;20097;-69
2022/07/08 04:02:22;;;;;;;3.65;2.00;;;;;;;12.01;100.00;99950.72;4991319;28;20225;-71
2022/07/08 04:04:48;;;;;;;9.48;2.40;;;;;;;12.04;100.00;99954.94;4990680;28;20146;-69
2022/07/08 04:07:13;;;;;;;5.70;2.17;;;;;;;12.05;100.00;99960.19;4991168;28;20023;-70
2022/07/08 04:09:38;;;;;;;5.05;1.88;;;;;;;12.04;100.00;99960.38;4989091;28;20076;-68
2022/07/08 04:12:05;;;;;;;5.60;1.80;;;;;;;12.01;100.00;99958.88;4995097;28;20149;-69
2022/07/08 04:14:30;;;;;;;6.70;1.85;;;;;;;12.01;100.00;99958.03;4996876;28;20033;-74
2022/07/08 04:16:55;;;;;;;5.10;1.80;;;;;;;11.92;100.00;99935.56;4982915;28;20034;-73
2022/07/08 04:19:21;;;;;;;8.27;2.28;;;;;;;12.09;100.00;99959.81;4992297;28;20022;-73
2022/07/08 04:21:46;;;;;;;6.95;2.40;;;;;;;11.99;100.00;99947.34;5010002;28;20079;-74
2022/07/08 04:24:12;;;;;;;8.10;1.90;;;;;;;12.01;100.00;99944.47;4999202;28;20053;-71
2022/07/08 04:26:37;;;;;;;6.10;1.80;;;;;;;12.15;100.00;99961.78;4990373;28;20026;-69
2022/07/08 04:29:02;;;;;;;5.22;1.60;;;;;;;12.18;100.00;99964.97;4992463;28;20057;-72
2022/07/08 04:31:28;;;;;;;5.03;1.70;;;;;;;12.27;100.00;99963.84;5006381;28;20109;-73
2022/07/08 04:33:54;;;;;;;6.82;1.67;;;;;;;12.33;100.00;99956.84;5012460;28;20462;-72
2022/07/08 04:36:20;;;;;;;7.93;1.60;;;;;;;12.39;100.00;99950.69;5007431;28;20057;-72
2022/07/08 04:38:46;;;;;;;9.30;1.77;;;;;;;12.41;100.00;99943.19;5004785;28;20037;-73
2022/07/08 04:41:11;;;;;;;5.90;2.13;;;;;;;12.58;100.00;99948.44;4988183;28;20030;-69
2022/07/08 04:43:36;;;;;;;4.43;1.48;;;;;;;12.66;100.00;99956.47;4992543;28;20508;-73
2022/07/08 04:46:02;;;;;;;7.60;1.73;;;;;;;12.77;100.00;99957.88;4992262;28;20027;-72
2022/07/08 04:48:27;;;;;;;7.47;1.75;;;;;;;12.74;100.00;99947.38;4999833;28;20480;-71
2022/07/08 04:50:52;;;;;;;5.13;1.70;;;;;;;12.86;100.00;99963.00;4986390;28;20030;-74
2022/07/08 04:53:18;;;;;;;6.97;1.60;;;;;;;12.91;100.00;99955.09;4986001;28;20154;-72
2022/07/08 04:55:43;;;;;;;7.47;1.58;;;;;;;13.11;100.00;99965.38;4975382;28;20117;-73
2022/07/08 04:58:08;;;;;;;5.97;1.70;;;;;;;13.14;100.00;99959.56;4988557;28;20034;-73
2022/07/08 05:00:34;;;;;;;4.32;2.15;;;;;;;13.27;100.00;99951.59;4990524;28;20034;-67
2022/07/08 05:03:00;;;;;;;7.45;1.92;;;;;;;13.31;100.00;99968.38;4997475;28;20496;-68
2022/07/08 05:05:26;;;;;;;7.03;1.80;;;;;;;13.41;100.00;99970.75;4999060;28;20048;-68
2022/07/08 05:07:52;;;;;;;6.30;2.05;;;;;;;13.61;100.00;99966.34;4989634;28;20599;-69
2022/07/08 05:10:18;;;;;;;10.30;2.88;;;;;;;13.52;100.00;99956.66;4994492;28;20494;-68
2022/07/08 05:12:44;;;;;;;2.63;1.67;;;;;;;13.63;100.00;99975.16;4993707;28;20026;-68
2022/07/08 05:15:11;;;;;;;6.05;1.98;;;;;;;13.77;100.00;99974.25;4988920;28;20121;-68
2022/07/08 05:17:37;;;;;;;5.50;1.90;;;;;;;13.93;100.00;99961.41;4988263;28;20026;-71
2022/07/08 05:20:04;;;;;;;11.20;2.40;;;;;;;14.02;100.00;99968.41;4989177;28;20033;-71
2022/07/08 05:22:29;;;;;;;7.07;1.90;;;;;;;14.15;99.38;99967.66;4989759;28;20053;-69
2022/07/08 05:24:55;;;;;;;7.35;1.90;;;;;;;14.31;99.04;99969.25;4990819;28;20014;-68
2022/07/08 05:27:20;;;;;;;4.18;1.67;;;;;;;14.40;95.63;99955.25;4984248;28;20041;-68
2022/07/08 05:29:46;;;;;;;7.75;2.00;;;;;;;14.54;93.71;99967.13;4998948;28;20033;-69
2022/07/08 05:32:11;;;;;;;5.82;1.55;;;;;;;14.66;94.52;99973.66;4989716;28;20034;-69
2022/07/08 05:34:38;;;;;;;8.13;2.08;;;;;;;14.81;95.39;99972.72;4983318;28;20481;-68
2022/07/08 05:37:03;;;;;;;3.80;1.70;;;;;;;14.84;89.94;99966.84;4998594;28;20499;-68
2022/07/08 05:39:29;;;;;;;9.02;2.55;;;;;;;14.97;94.27;99975.06;4987658;28;20034;-68
2022/07/08 05:41:54;;;;;;;7.80;2.05;;;;;;;15.12;86.45;99951.25;4992078;28;20026;-70
2022/07/08 05:44:19;;;;;;;3.35;1.63;;;;;;;15.39;86.33;99978.56;4980118;28;20033;-68
2022/07/08 05:46:45;;;;;;;5.65;1.92;;;;;;;15.57;85.40;99976.09;4991294;28;20067;-68
2022/07/08 05:49:10;;;;;;;17.23;1.70;;;;;;;15.86;79.18;99984.16;4989581;28;20513;-68
2022/07/08 05:51:36;;;;;;;5.20;1.20;;;;;;;16.02;77.59;99985.63;4988477;28;20034;-68
2022/07/08 05:54:01;;;;;;;6.60;1.58;;;;;;;16.19;76.20;99986.84;4987876;28;20057;-69
2022/07/08 05:56:26;;;;;;;5.82;1.30;;;;;;;16.26;73.62;99982.25;4986320;28;20026;-70
2022/07/08 05:58:52;;;;;;;6.43;1.63;;;;;;;16.39;69.97;99997.78;4988371;28;20030;-70
2022/07/08 06:01:17;;;;;;;7.47;1.58;;;;;;;16.61;66.61;99996.50;4988682;28;20106;-71
2022/07/08 06:03:42;;;;;;;6.38;1.13;;;;;;;16.66;67.20;99990.34;4986417;28;20018;-71
2022/07/08 06:06:07;;;;;;;4.75;1.02;;;;;;;16.83;68.68;99997.09;4992897;28;20136;-68
2022/07/08 06:08:33;;;;;;;3.03;1.02;;;;;;;16.98;66.56;99988.63;4991709;28;20022;-71
2022/07/08 06:11:01;;;;;;;5.38;1.13;;;;;;;17.21;64.49;99998.19;5009325;28;20041;-68
2022/07/08 06:13:26;;;;;;;6.05;1.00;;;;;;;17.29;63.41;100003.41;5003096;28;20050;-72
2022/07/08 06:15:52;;;;;;;4.07;1.00;;;;;;;17.52;62.77;100002.88;5007133;28;20037;-71
2022/07/08 06:18:18;;;;;;;4.13;1.10;;;;;;;17.60;61.33;100009.97;5007560;28;20097;-69
2022/07/08 06:20:44;;;;;;;7.60;1.10;;;;;;;17.64;61.49;100006.59;5005442;28;20026;-70
2022/07/08 06:23:09;;;;;;;4.30;1.08;;;;;;;17.84;60.38;100005.66;4992601;28;20110;-72
2022/07/08 06:25:35;;;;;;;4.82;1.30;;;;;;;17.90;60.00;100002.88;5003056;28;20456;-70
2022/07/08 06:28:00;;;;;;;6.88;1.13;;;;;;;17.96;60.01;100006.63;5003872;28;20047;-69
2022/07/08 06:30:26;;;;;;;6.22;1.33;;;;;;;18.04;58.38;100014.56;5000982;28;20023;-70
2022/07/08 06:32:51;;;;;;;4.30;1.02;;;;;;;18.36;58.75;100000.81;5003110;28;20038;-69
2022/07/08 06:35:16;;;;;;;3.65;0.98;;;;;;;18.62;57.64;100005.19;4998747;28;20092;-67
2022/07/08 06:37:42;;;;;;;2.60;0.90;;;;;;;18.86;56.75;100008.97;4999766;28;20108;-67
2022/07/08 06:40:08;;;;;;;5.25;0.98;;;;;;;18.97;56.42;99993.69;4998461;28;20030;-67
2022/07/08 06:42:33;;;;;;;5.57;1.10;;;;;;;19.03;54.17;100015.53;4996999;28;20042;-67
2022/07/08 06:44:58;;;;;;;4.55;1.20;;;;;;;19.24;54.09;100003.25;4990210;28;21524;-73
2022/07/08 06:47:24;;;;;;;10.88;1.13;;;;;;;19.40;53.99;100015.47;4990708;28;20547;-73
2022/07/08 06:49:50;;;;;;;6.22;1.15;;;;;;;19.82;52.46;100011.97;4993763;28;20038;-75
2022/07/08 06:52:16;;;;;;;3.65;0.90;;;;;;;20.08;52.16;99991.50;4991948;28;20400;-70
2022/07/08 06:54:41;;;;;;;7.60;0.93;;;;;;;20.63;50.13;100007.69;4988593;28;20033;-70
2022/07/08 06:57:07;;;;;;;4.20;0.90;;;;;;;21.13;48.75;100012.63;4994313;28;20419;-71
2022/07/08 06:59:34;;;;;;;5.53;1.00;;;;;;;21.49;48.42;100013.38;4991690;28;20018;-71
2022/07/08 07:01:59;;;;;;;3.30;1.00;;;;;;;21.60;47.76;100017.19;4990258;28;20054;-71
2022/07/08 07:04:26;;;;;;;5.47;0.95;;;;;;;23.20;45.69;100016.72;4988595;28;20124;-71
2022/07/08 07:06:52;;;;;;;3.85;0.90;;;;;;;24.86;41.82;100000.34;4992913;28;20480;-71
2022/07/08 07:09:17;;;;;;;5.43;1.52;;;;;;;26.05;37.97;100012.66;4992365;28;20037;-68
2022/07/08 07:11:42;;;;;;;6.93;0.88;;;;;;;28.02;36.04;100008.75;4993077;28;20030;-68
2022/07/08 07:14:08;;;;;;;3.38;0.90;;;;;;;29.64;33.22;100007.34;4990660;28;20527;-69
2022/07/08 07:16:33;;;;;;;3.58;0.98;;;;;;;29.13;33.08;100004.38;4990087;28;20036;-70
2022/07/08 07:18:59;;;;;;;2.55;1.02;;;;;;;29.76;31.67;100022.81;4987390;28;20030;-69
2022/07/08 07:21:24;;;;;;;5.53;1.30;;;;;;;28.77;32.66;100015.91;4992845;28;20468;-72
2022/07/08 07:23:49;;;;;;;3.10;0.90;;;;;;;30.45;29.98;100015.59;4993459;28;20377;-70
2022/07/08 07:26:14;;;;;;;3.63;0.77;;;;;;;30.92;28.87;100018.38;4994912;28;20460;-71
2022/07/08 07:28:40;;;;;;;5.13;1.25;;;;;;;32.92;26.99;100018.19;4989835;28;20083;-71
2022/07/08 07:31:06;;;;;;;8.02;0.88;;;;;;;32.71;26.51;100022.72;4992520;28;20112;-72
2022/07/08 07:33:32;;;;;;;3.75;0.85;;;;;;;32.51;26.72;100022.13;4985392;28;20057;-73
2022/07/08 07:35:57;;;;;;;3.75;1.15;;;;;;;32.46;26.53;100016.63;4993635;28;20100;-73
2022/07/08 07:38:23;;;;;;;5.45;1.35;;;;;;;32.59;26.31;100026.09;4984304;28;20486;-72
2022/07/08 07:40:48;;;;;;;3.00;0.70;;;;;;;29.84;29.67;100022.97;4991959;28;20105;-75
2022/07/08 07:43:14;;;;;;;3.47;0.70;;;;;;;27.03;33.39;100028.13;4992109;28;20054;-71
2022/07/08 07:45:39;;;;;;;4.57;0.80;;;;;;;27.89;31.58;100023.31;4987688;28;20030;-69
2022/07/08 07:48:04;;;;;;;5.90;0.90;;;;;;;27.32;31.96;100006.06;4985512;28;20103;-70
2022/07/08 07:50:30;;;;;;;2.80;0.70;;;;;;;25.21;34.49;100028.50;4987806;28;20022;-70
2022/07/08 07:52:55;;;;;;;4.82;0.75;;;;;;;24.40;37.06;100021.28;4987862;28;20062;-70
2022/07/08 07:55:21;;;;;;;7.15;0.93;;;;;;;23.43;39.85;100028.63;4999243;28;20084;-72
2022/07/08 07:57:48;;;;;;;4.18;1.00;;;;;;;22.58;41.74;100020.53;4987977;28;20197;-73
2022/07/08 08:00:15;;;;;;;3.60;0.90;;;;;;;21.75;43.37;100019.41;4990759;28;20022;-69
2022/07/08 08:02:41;;;;;;;6.40;1.10;;;;;;;21.48;43.38;100019.97;4987938;28;20026;-72
2022/07/08 08:05:07;;;;;;;4.60;0.75;;;;;;;21.49;43.71;100032.66;4989749;28;20050;-71
2022/07/08 08:07:32;;;;;;;4.03;0.80;;;;;;;22.97;41.29;100020.56;4991958;28;20029;-75
2022/07/08 08:09:58;;;;;;;5.75;0.88;;;;;;;24.78;37.23;100024.91;4985761;28;20027;-76
2022/07/08 08:12:23;;;;;;;3.47;0.90;;;;;;;24.80;36.78;100034.59;4991163;28;20077;-74
2022/07/08 08:14:48;;;;;;;4.50;0.52;;;;;;;25.02;37.25;100015.09;4991467;28;20030;-75
2022/07/08 08:17:15;;;;;;;2.03;0.60;;;;;;;23.45;37.94;100037.44;4992065;28;20488;-75
2022/07/08 08:19:40;;;;;;;8.77;0.70;;;;;;;24.31;37.43;100034.75;4990844;28;20045;-74
2022/07/08 08:22:05;;;;;;;2.45;0.47;;;;;;;27.30;33.06;100027.75;4994016;28;20022;-73
2022/07/08 08:24:30;;;;;;;3.47;0.77;;;;;;;28.94;30.32;100021.84;4983947;28;20028;-72
2022/07/08 08:26:56;;;;;;;5.03;0.80;;;;;;;32.41;27.35;100024.28;4990263;28;20493;-72
2022/07/08 08:29:21;;;;;;;3.75;0.70;;;;;;;33.34;25.35;100029.09;4991292;28;20438;-70
2022/07/08 08:31:47;;;;;;;5.40;1.08;;;;;;;33.55;25.36;100029.34;4984954;28;20030;-71
2022/07/08 08:34:12;;;;;;;3.22;0.70;;;;;;;30.94;28.65;100027.28;4993506;28;20030;-73
2022/07/08 08:36:37;;;;;;;2.63;0.85;;;;;;;27.78;32.03;100030.03;4986349;28;20025;-73
2022/07/08 08:39:03;;;;;;;4.53;0.50;;;;;;;25.71;34.88;100036.13;4993887;28;20037;-76
2022/07/08 08:41:29;;;;;;;3.28;0.73;;;;;;;24.08;36.76;100035.97;4989011;28;20098;-76
2022/07/08 08:43:55;;;;;;;2.40;0.70;;;;;;;22.93;38.80;100025.75;4995618;28;20033;-79
2022/07/08 08:46:23;;;;;;;4.00;0.63;;;;;;;22.14;39.50;100034.16;4988998;28;20022;-68
2022/07/08 08:48:48;;;;;;;2.10;0.65;;;;;;;22.04;40.47;100037.56;4992020;28;20113;-66
2022/07/08 08:51:20;;;;;;;3.55;0.70;;;;;;;23.26;38.78;100023.97;4991949;28;20079;-74
2022/07/08 08:53:47;;;;;;;4.53;0.63;;;;;;;24.06;37.63;100027.91;4988511;28;20435;-71
2022/07/08 08:56:14;;;;;;;4.18;0.60;;;;;;;23.63;38.43;100017.78;4985829;28;20476;-73
2022/07/08 08:58:42;;;;;;;3.05;0.60;;;;;;;24.40;35.92;100010.22;4985868;28;20022;-72
2022/07/08 09:01:08;;;;;;;3.67;0.60;;;;;;;27.17;33.11;100015.34;4989190;28;20027;-71
2022/07/08 09:03:37;;;;;;;3.25;0.75;;;;;;;30.45;29.09;100010.00;4982023;28;20026;-70
2022/07/08 09:06:03;;;;;;;5.32;1.13;;;;;;;28.93;28.39;100017.41;4982098;28;20026;-71
2022/07/08 09:08:28;;;;;;;1.98;0.50;;;;;;;31.49;27.67;100012.47;4988550;28;20030;-70
2022/07/08 09:10:54;;;;;;;4.40;0.50;;;;;;;29.14;29.29;100020.00;4992505;28;20479;-70
2022/07/08 09:13:23;;;;;;;3.88;0.80;;;;;;;26.04;32.98;100034.00;4991610;28;20038;-71
2022/07/08 09:15:58;;;;;;;2.05;0.50;;;;;;;24.59;35.55;100025.31;4997643;28;20034;-69
2022/07/08 09:18:32;;;;;;;5.20;0.63;;;;;;;25.35;34.70;100032.41;5013003;28;20026;-74
2022/07/08 09:20:58;;;;;;;6.80;0.93;;;;;;;27.24;32.72;100035.28;4999939;28;20033;-72
2022/07/08 09:23:29;;;;;;;4.30;0.70;;;;;;;30.21;27.60;100028.78;4995420;28;20488;-74
2022/07/08 09:26:00;;;;;;;2.45;0.52;;;;;;;31.71;26.51;100022.91;4998898;28;20030;-73
2022/07/08 09:28:34;;;;;;;4.93;0.70;;;;;;;33.89;24.73;100028.53;5005780;28;20088;-68
2022/07/08 09:31:02;;;;;;;4.22;0.80;;;;;;;34.95;23.79;100027.25;5000820;28;20039;-78
2022/07/08 09:33:28;;;;;;;2.05;0.40;;;;;;;35.98;22.23;100031.47;4981719;28;20077;-68
2022/07/08 09:36:00;;;;;;;5.50;0.80;;;;;;;35.31;23.56;100038.84;4986384;28;20097;-68
2022/07/08 09:38:30;;;;;;;3.15;0.80;;;;;;;36.67;21.99;100039.66;4988945;28;20038;-66
2022/07/08 09:41:02;;;;;;;1.80;0.40;;;;;;;34.78;23.18;100042.22;4990919;28;20552;-67
2022/07/08 09:43:27;;;;;;;6.60;0.57;;;;;;;33.43;25.13;100038.34;4989394;28;20041;-68
2022/07/08 09:45:53;;;;;;;3.25;0.47;;;;;;;34.56;23.41;100013.16;4986398;28;20030;-67
2022/07/08 09:48:20;;;;;;;2.55;0.73;;;;;;;34.92;23.20;100025.94;4984281;28;20022;-68
2022/07/08 09:50:49;;;;;;;3.55;0.70;;;;;;;35.29;22.24;100029.09;4989028;28;20066;-68
2022/07/08 09:53:20;;;;;;;2.50;0.73;;;;;;;34.00;23.46;100034.66;4999963;28;20156;-68
2022/07/08 09:55:51;;;;;;;2.20;0.52;;;;;;;35.64;22.19;100017.69;4992948;28;20034;-67
2022/07/08 09:58:21;;;;;;;3.03;0.70;;;;;;;34.57;22.55;100025.22;4984353;28;20433;-67
2022/07/08 10:00:48;;;;;;;2.10;0.70;;;;;;;35.29;22.97;100023.47;4989857;28;20014;-68
2022/07/08 10:03:14;;;;;;;2.83;0.70;;;;;;;33.32;23.33;100023.78;4992159;28;20022;-67
2022/07/08 10:05:41;;;;;;;2.75;0.70;;;;;;;31.43;27.06;100025.75;4982714;28;20547;-67
2022/07/08 10:08:08;;;;;;;5.20;1.55;;;;;;;30.48;27.28;100036.50;4990452;28;20113;-68
2022/07/08 10:10:34;;;;;;;6.45;1.23;;;;;;;29.38;29.31;100018.00;4984427;28;20464;-68
2022/07/08 10:13:01;;;;;;;12.00;4.07;;;;;;;29.65;29.48;100025.72;4985470;28;20867;-68
2022/07/08 10:15:28;;;;;;;10.27;1.92;;;;;;;32.18;26.13;100024.31;4986186;28;20049;-68
2022/07/08 10:17:57;;;;;;;8.35;2.72;;;;;;;33.51;24.60;100022.69;4990977;28;20025;-67
2022/07/08 10:20:25;;;;;;;4.65;0.82;;;;;;;33.36;25.31;100027.63;4990168;28;20093;-68
2022/07/08 10:22:54;;;;;;;;;;;;;;;33.12;24.74;100022.44;4985124;28;20464;-67
2022/07/08 10:25:20;;;;;;;0.90;0.50;;;;;;;34.64;22.60;100017.94;4984281;28;19949;-67
2022/07/08 10:27:47;;;;;;;3.40;0.90;;;;;;;32.59;24.42;100009.28;4989776;28;20033;-68
2022/07/08 10:30:17;;;;;;;2.65;0.50;;;;;;;32.32;25.52;100018.66;4986441;28;20825;-67
2022/07/08 10:32:47;;;;;;;2.30;0.60;;;;;;;31.36;26.86;100028.09;4987774;28;20026;-67
2022/07/08 10:35:21;;;;;;;4.10;0.63;;;;;;;33.04;25.49;100023.22;4988585;28;20108;-67
2022/07/08 10:37:58;;;;;;;5.15;0.95;;;;;;;33.83;24.22;100018.66;4984961;28;20030;-67
2022/07/08 10:40:42;;;;;;;5.32;1.00;;;;;;;32.63;25.31;100023.50;4988762;28;20391;-67
2022/07/08 10:43:19;;;;;;;3.92;0.90;;;;;;;33.17;24.99;100030.69;4985147;28;20038;-67
2022/07/08 10:46:07;;;;;;;4.63;1.00;;;;;;;32.68;24.52;100023.34;4993312;28;20022;-67
2022/07/08 10:48:41;;;;;;;2.85;0.70;;;;;;;31.93;25.52;100027.75;4984485;28;20091;-67
2022/07/08 10:51:28;;;;;;;3.10;0.70;;;;;;;33.34;25.15;100024.31;4986601;28;20034;-67
2022/07/08 10:53:53;;;;;;;2.30;0.52;;;;;;;32.42;25.18;100011.97;4982630;28;20030;-68
2022/07/08 10:56:50;;;;;;;6.07;0.80;;;;;;;32.82;25.51;100017.66;4985362;28;20034;-71
2022/07/08 10:59:21;;;;;;;2.42;0.95;;;;;;;32.44;25.45;100018.91;4994251;28;20056;-72
2022/07/08 11:01:51;;;;;;;1.92;0.50;;;;;;;32.82;25.88;100015.66;4987401;28;20097;-72
2022/07/08 11:04:34;;;;;;;5.20;0.98;;;;;;;32.76;24.72;100013.34;4986640;28;20022;-71
2022/07/08 11:07:14;;;;;;;2.65;0.90;;;;;;;32.63;25.24;100006.69;4987584;28;20030;-73
2022/07/08 11:09:41;;;;;;;3.65;0.57;;;;;;;33.83;24.82;100013.84;5003825;28;20030;-72
2022/07/08 11:12:18;;;;;;;4.22;0.80;;;;;;;33.50;24.30;99993.81;4989261;28;20030;-75
2022/07/08 11:14:48;;;;;;;3.50;0.80;;;;;;;34.12;24.15;100009.59;4988212;28;20033;-72
2022/07/08 11:17:17;;;;;;;2.13;0.50;;;;;;;33.86;24.20;100008.75;4983362;28;20116;-75
2022/07/08 11:19:44;;;;;;;4.47;0.50;;;;;;;33.53;23.93;99998.75;4987842;28;20101;-76
2022/07/08 11:22:10;;;;;;;3.22;0.70;;;;;;;33.88;25.02;100009.22;4989336;28;20023;-73
2022/07/08 11:24:40;;;;;;;1.60;0.50;;;;;;;33.66;23.95;100013.00;4988882;28;20038;-76
2022/07/08 11:27:06;;;;;;;3.88;0.70;;;;;;;33.25;24.56;100009.44;4984842;28;20567;-71